sensor_id;sensor_type;location;lat;lon;timestamp;pressure;altitude;pressure_sealevel;temperature;humidity
19789;BME280;10054;59.332;18.244;2023-03-13T00:01:41;99686.89;;;-5.05;72.47
19789;BME280;10054;59.332;18.244;2023-03-13T00:04:06;99686.05;;;-5.06;72.26
19789;BME280;10054;59.332;18.244;2023-03-13T00:06:36;99683.93;;;-5.08;72.11
19789;BME280;10054;59.332;18.244;2023-03-13T00:09:08;99683.54;;;-5.10;72.16
19789;BME280;10054;59.332;18.244;2023-03-13T00:11:37;99682.30;;;-5.13;72.23
19789;BME280;10054;59.332;18.244;2023-03-13T00:14:06;99685.36;;;-5.18;72.15
19789;BME280;10054;59.332;18.244;2023-03-13T00:16:35;99683.72;;;-5.21;72.32
19789;BME280;10054;59.332;18.244;2023-03-13T00:19:07;99686.35;;;-5.25;72.43
19789;BME280;10054;59.332;18.244;2023-03-13T00:21:36;99686.41;;;-5.30;72.80
19789;BME280;10054;59.332;18.244;2023-03-13T00:24:08;99689.45;;;-5.34;72.96
19789;BME280;10054;59.332;18.244;2023-03-13T00:26:37;99691.66;;;-5.38;72.80
19789;BME280;10054;59.332;18.244;2023-03-13T00:29:06;99707.55;;;-5.41;72.77
19789;BME280;10054;59.332;18.244;2023-03-13T00:31:34;99706.32;;;-5.46;72.92
19789;BME280;10054;59.332;18.244;2023-03-13T00:34:03;99708.08;;;-5.49;73.18
19789;BME280;10054;59.332;18.244;2023-03-13T00:36:34;99699.97;;;-5.52;73.33
19789;BME280;10054;59.332;18.244;2023-03-13T00:39:04;99693.60;;;-5.56;73.32
19789;BME280;10054;59.332;18.244;2023-03-13T00:41:36;99690.20;;;-5.58;73.33
19789;BME280;10054;59.332;18.244;2023-03-13T00:44:05;99689.82;;;-5.63;73.25
19789;BME280;10054;59.332;18.244;2023-03-13T00:46:34;99683.00;;;-5.65;73.57
19789;BME280;10054;59.332;18.244;2023-03-13T00:49:04;99680.02;;;-5.66;73.80
19789;BME280;10054;59.332;18.244;2023-03-13T00:51:33;99684.32;;;-5.68;73.70
19789;BME280;10054;59.332;18.244;2023-03-13T00:54:03;99688.21;;;-5.71;73.95
19789;BME280;10054;59.332;18.244;2023-03-13T00:56:33;99686.55;;;-5.75;74.23
19789;BME280;10054;59.332;18.244;2023-03-13T00:59:01;99685.28;;;-5.77;74.42
19789;BME280;10054;59.332;18.244;2023-03-13T01:01:37;99681.44;;;-5.78;74.50
19789;BME280;10054;59.332;18.244;2023-03-13T01:04:05;99675.02;;;-5.78;74.66
19789;BME280;10054;59.332;18.244;2023-03-13T01:06:36;99666.86;;;-5.76;74.78
19789;BME280;10054;59.332;18.244;2023-03-13T01:09:08;99661.75;;;-5.78;74.62
19789;BME280;10054;59.332;18.244;2023-03-13T01:11:38;99668.60;;;-5.78;74.94
19789;BME280;10054;59.332;18.244;2023-03-13T01:14:14;99665.17;;;-5.77;75.27
19789;BME280;10054;59.332;18.244;2023-03-13T01:16:39;99655.77;;;-5.78;75.08
19789;BME280;10054;59.332;18.244;2023-03-13T01:19:13;99656.63;;;-5.79;75.20
19789;BME280;10054;59.332;18.244;2023-03-13T01:21:43;99648.47;;;-5.77;75.60
19789;BME280;10054;59.332;18.244;2023-03-13T01:24:13;99646.75;;;-5.77;75.30
19789;BME280;10054;59.332;18.244;2023-03-13T01:26:43;99639.92;;;-5.78;75.54
19789;BME280;10054;59.332;18.244;2023-03-13T01:29:12;99641.20;;;-5.78;75.68
19789;BME280;10054;59.332;18.244;2023-03-13T01:31:41;99626.66;;;-5.79;75.57
19789;BME280;10054;59.332;18.244;2023-03-13T01:34:10;99623.23;;;-5.79;75.79
19789;BME280;10054;59.332;18.244;2023-03-13T01:36:39;99622.38;;;-5.78;75.76
19789;BME280;10054;59.332;18.244;2023-03-13T01:39:08;99616.82;;;-5.79;76.12
19789;BME280;10054;59.332;18.244;2023-03-13T01:41:37;99621.80;;;-5.67;79.14
19789;BME280;10054;59.332;18.244;2023-03-13T01:44:17;99623.06;;;-5.66;78.39
19789;BME280;10054;59.332;18.244;2023-03-13T01:46:38;99618.81;;;-5.68;77.92
19789;BME280;10054;59.332;18.244;2023-03-13T01:49:31;99616.31;;;-5.73;77.49
19789;BME280;10054;59.332;18.244;2023-03-13T01:52:25;99610.80;;;-5.77;77.23
19789;BME280;10054;59.332;18.244;2023-03-13T01:55:08;99601.41;;;-5.79;77.04
19789;BME280;10054;59.332;18.244;2023-03-13T01:57:43;99598.47;;;-5.83;77.00
19789;BME280;10054;59.332;18.244;2023-03-13T02:00:14;99594.23;;;-5.87;77.10
19789;BME280;10054;59.332;18.244;2023-03-13T02:02:46;99600.22;;;-5.87;77.41
19789;BME280;10054;59.332;18.244;2023-03-13T02:05:17;99604.07;;;-5.87;77.46
19789;BME280;10054;59.332;18.244;2023-03-13T02:07:55;99602.36;;;-5.86;77.48
19789;BME280;10054;59.332;18.244;2023-03-13T02:10:25;99597.67;;;-5.88;77.37
19789;BME280;10054;59.332;18.244;2023-03-13T02:12:56;99598.14;;;-5.89;77.42
19789;BME280;10054;59.332;18.244;2023-03-13T02:15:27;99599.44;;;-5.90;77.46
19789;BME280;10054;59.332;18.244;2023-03-13T02:17:57;99590.92;;;-5.94;77.37
19789;BME280;10054;59.332;18.244;2023-03-13T02:20:27;99592.73;;;-5.99;77.23
19789;BME280;10054;59.332;18.244;2023-03-13T02:23:09;99588.07;;;-6.03;77.39
19789;BME280;10054;59.332;18.244;2023-03-13T02:25:48;99578.70;;;-6.07;77.42
19789;BME280;10054;59.332;18.244;2023-03-13T02:28:27;99585.14;;;-6.08;77.57
19789;BME280;10054;59.332;18.244;2023-03-13T02:30:54;99582.59;;;-6.10;77.33
19789;BME280;10054;59.332;18.244;2023-03-13T02:33:30;99575.81;;;-6.15;76.97
19789;BME280;10054;59.332;18.244;2023-03-13T02:36:01;99570.31;;;-6.21;77.49
19789;BME280;10054;59.332;18.244;2023-03-13T02:38:34;99567.35;;;-6.23;77.85
19789;BME280;10054;59.332;18.244;2023-03-13T02:41:04;99566.10;;;-6.26;77.64
19789;BME280;10054;59.332;18.244;2023-03-13T02:43:35;99567.44;;;-6.31;78.10
19789;BME280;10054;59.332;18.244;2023-03-13T02:46:11;99570.50;;;-6.38;77.58
19789;BME280;10054;59.332;18.244;2023-03-13T02:48:52;99571.00;;;-6.44;77.72
19789;BME280;10054;59.332;18.244;2023-03-13T02:51:30;99570.23;;;-6.52;78.03
19789;BME280;10054;59.332;18.244;2023-03-13T02:54:09;99575.41;;;-6.57;78.20
19789;BME280;10054;59.332;18.244;2023-03-13T02:56:34;99574.17;;;-6.62;78.21
19789;BME280;10054;59.332;18.244;2023-03-13T02:59:04;99578.89;;;-6.63;78.70
19789;BME280;10054;59.332;18.244;2023-03-13T03:01:34;99581.47;;;-6.64;78.67
19789;BME280;10054;59.332;18.244;2023-03-13T03:04:04;99582.36;;;-6.68;78.72
19789;BME280;10054;59.332;18.244;2023-03-13T03:06:33;99581.13;;;-6.70;79.03
19789;BME280;10054;59.332;18.244;2023-03-13T03:09:03;99573.91;;;-6.75;79.29
19789;BME280;10054;59.332;18.244;2023-03-13T03:11:34;99566.22;;;-6.75;79.76
19789;BME280;10054;59.332;18.244;2023-03-13T03:14:05;99569.64;;;-6.76;79.74
19789;BME280;10054;59.332;18.244;2023-03-13T03:16:36;99570.08;;;-6.76;80.16
19789;BME280;10054;59.332;18.244;2023-03-13T03:19:05;99569.23;;;-6.78;80.02
19789;BME280;10054;59.332;18.244;2023-03-13T03:21:35;99570.56;;;-6.83;79.79
19789;BME280;10054;59.332;18.244;2023-03-13T03:24:04;99558.95;;;-6.75;83.83
19789;BME280;10054;59.332;18.244;2023-03-13T03:26:33;99561.92;;;-6.73;84.92
19789;BME280;10054;59.332;18.244;2023-03-13T03:29:04;99561.12;;;-6.78;84.29
19789;BME280;10054;59.332;18.244;2023-03-13T03:31:34;99557.30;;;-6.81;84.08
19789;BME280;10054;59.332;18.244;2023-03-13T03:34:03;99559.00;;;-6.80;84.16
19789;BME280;10054;59.332;18.244;2023-03-13T03:36:32;99554.77;;;-6.84;83.48
19789;BME280;10054;59.332;18.244;2023-03-13T03:39:02;99554.80;;;-6.87;83.38
19789;BME280;10054;59.332;18.244;2023-03-13T03:41:32;99556.92;;;-6.86;83.47
19789;BME280;10054;59.332;18.244;2023-03-13T03:44:01;99558.19;;;-6.85;83.49
19789;BME280;10054;59.332;18.244;2023-03-13T03:46:31;99553.89;;;-6.81;83.72
19789;BME280;10054;59.332;18.244;2023-03-13T03:49:01;99549.16;;;-6.79;83.71
19789;BME280;10054;59.332;18.244;2023-03-13T03:51:30;99545.73;;;-6.78;83.84
19789;BME280;10054;59.332;18.244;2023-03-13T03:53:59;99536.33;;;-6.77;83.96
19789;BME280;10054;59.332;18.244;2023-03-13T03:56:29;99545.72;;;-6.76;84.00
19789;BME280;10054;59.332;18.244;2023-03-13T03:58:59;99539.75;;;-6.78;84.04
19789;BME280;10054;59.332;18.244;2023-03-13T04:01:32;99532.11;;;-6.83;84.29
19789;BME280;10054;59.332;18.244;2023-03-13T04:04:02;99547.55;;;-6.89;84.11
19789;BME280;10054;59.332;18.244;2023-03-13T04:06:31;99549.70;;;-6.90;84.32
19789;BME280;10054;59.332;18.244;2023-03-13T04:09:01;99536.44;;;-6.89;84.42
19789;BME280;10054;59.332;18.244;2023-03-13T04:11:31;99544.58;;;-6.91;84.26
19789;BME280;10054;59.332;18.244;2023-03-13T04:14:00;99541.18;;;-6.93;84.11
19789;BME280;10054;59.332;18.244;2023-03-13T04:16:29;99530.13;;;-6.99;83.87
19789;BME280;10054;59.332;18.244;2023-03-13T04:18:59;99531.84;;;-7.01;84.32
19789;BME280;10054;59.332;18.244;2023-03-13T04:21:28;99525.47;;;-7.04;84.43
19789;BME280;10054;59.332;18.244;2023-03-13T04:24:01;99516.91;;;-7.03;84.77
19789;BME280;10054;59.332;18.244;2023-03-13T04:26:31;99504.09;;;-7.03;84.80
19789;BME280;10054;59.332;18.244;2023-03-13T04:29:00;99497.67;;;-7.01;84.77
19789;BME280;10054;59.332;18.244;2023-03-13T04:31:31;99495.11;;;-7.01;84.49
19789;BME280;10054;59.332;18.244;2023-03-13T04:34:04;99490.88;;;-7.05;84.32
19789;BME280;10054;59.332;18.244;2023-03-13T04:36:35;99488.34;;;-7.08;84.32
19789;BME280;10054;59.332;18.244;2023-03-13T04:39:21;99482.83;;;-7.12;84.15
19789;BME280;10054;59.332;18.244;2023-03-13T04:41:55;99477.78;;;-7.20;83.83
19789;BME280;10054;59.332;18.244;2023-03-13T04:44:41;99466.73;;;-7.26;84.17
19789;BME280;10054;59.332;18.244;2023-03-13T04:47:12;99464.22;;;-7.31;84.24
19789;BME280;10054;59.332;18.244;2023-03-13T04:49:51;99444.59;;;-7.34;84.52
19789;BME280;10054;59.332;18.244;2023-03-13T04:52:22;99447.19;;;-7.37;84.82
19789;BME280;10054;59.332;18.244;2023-03-13T04:55:09;99447.22;;;-7.40;84.88
19789;BME280;10054;59.332;18.244;2023-03-13T04:57:45;99448.16;;;-7.45;85.10
19789;BME280;10054;59.332;18.244;2023-03-13T05:00:31;99440.91;;;-7.47;85.83
19789;BME280;10054;59.332;18.244;2023-03-13T05:03:20;99441.31;;;-7.45;86.10
19789;BME280;10054;59.332;18.244;2023-03-13T05:05:51;99446.86;;;-7.44;86.43
19789;BME280;10054;59.332;18.244;2023-03-13T05:08:21;99437.78;;;-7.35;89.51
19789;BME280;10054;59.332;18.244;2023-03-13T05:11:04;99430.83;;;-7.22;91.60
19789;BME280;10054;59.332;18.244;2023-03-13T05:13:38;99430.81;;;-7.20;91.04
19789;BME280;10054;59.332;18.244;2023-03-13T05:16:24;99424.42;;;-7.22;91.31
19789;BME280;10054;59.332;18.244;2023-03-13T05:19:07;99410.28;;;-7.17;91.46
19789;BME280;10054;59.332;18.244;2023-03-13T05:21:37;99404.23;;;-7.12;91.51
19789;BME280;10054;59.332;18.244;2023-03-13T05:24:14;99395.64;;;-7.06;91.99
19789;BME280;10054;59.332;18.244;2023-03-13T05:26:59;99398.53;;;-6.98;92.65
19789;BME280;10054;59.332;18.244;2023-03-13T05:29:33;99395.45;;;-6.89;93.10
19789;BME280;10054;59.332;18.244;2023-03-13T05:32:06;99399.55;;;-6.75;94.30
19789;BME280;10054;59.332;18.244;2023-03-13T05:34:53;99398.08;;;-6.63;94.74
19789;BME280;10054;59.332;18.244;2023-03-13T05:37:27;99394.00;;;-6.46;95.91
19789;BME280;10054;59.332;18.244;2023-03-13T05:40:16;99390.38;;;-6.31;97.17
19789;BME280;10054;59.332;18.244;2023-03-13T05:43:02;99384.96;;;-6.11;100.00
19789;BME280;10054;59.332;18.244;2023-03-13T05:45:48;99380.44;;;-5.95;99.63
19789;BME280;10054;59.332;18.244;2023-03-13T05:48:27;99374.05;;;-5.75;100.00
19789;BME280;10054;59.332;18.244;2023-03-13T05:51:04;99364.20;;;-5.50;100.00
19789;BME280;10054;59.332;18.244;2023-03-13T05:53:44;99365.12;;;-5.30;100.00
19789;BME280;10054;59.332;18.244;2023-03-13T05:56:17;99353.94;;;-5.07;100.00
19789;BME280;10054;59.332;18.244;2023-03-13T05:58:59;99356.39;;;-4.80;100.00
19789;BME280;10054;59.332;18.244;2023-03-13T06:01:46;99359.45;;;-4.62;100.00
19789;BME280;10054;59.332;18.244;2023-03-13T06:04:22;99349.34;;;-4.51;100.00
19789;BME280;10054;59.332;18.244;2023-03-13T06:06:51;99349.11;;;-4.42;100.00
19789;BME280;10054;59.332;18.244;2023-03-13T06:09:20;99346.73;;;-4.32;100.00
19789;BME280;10054;59.332;18.244;2023-03-13T06:11:50;99352.48;;;-4.20;100.00
19789;BME280;10054;59.332;18.244;2023-03-13T06:14:20;99335.46;;;-4.08;100.00
19789;BME280;10054;59.332;18.244;2023-03-13T06:16:59;99338.19;;;-3.97;100.00
19789;BME280;10054;59.332;18.244;2023-03-13T06:19:28;99333.17;;;-3.85;100.00
19789;BME280;10054;59.332;18.244;2023-03-13T06:21:57;99319.62;;;-3.75;100.00
19789;BME280;10054;59.332;18.244;2023-03-13T06:24:26;99312.06;;;-3.67;100.00
19789;BME280;10054;59.332;18.244;2023-03-13T06:26:55;99316.14;;;-3.58;100.00
19789;BME280;10054;59.332;18.244;2023-03-13T06:29:24;99318.48;;;-3.49;100.00
19789;BME280;10054;59.332;18.244;2023-03-13T06:31:52;99313.60;;;-3.43;100.00
19789;BME280;10054;59.332;18.244;2023-03-13T06:34:22;99309.08;;;-3.35;100.00
19789;BME280;10054;59.332;18.244;2023-03-13T06:36:51;99308.88;;;-3.27;100.00
19789;BME280;10054;59.332;18.244;2023-03-13T06:39:20;99305.20;;;-3.19;100.00
19789;BME280;10054;59.332;18.244;2023-03-13T06:41:48;99294.22;;;-3.11;100.00
19789;BME280;10054;59.332;18.244;2023-03-13T06:44:17;99291.78;;;-3.01;100.00
19789;BME280;10054;59.332;18.244;2023-03-13T06:46:46;99292.37;;;-2.92;100.00
19789;BME280;10054;59.332;18.244;2023-03-13T06:49:15;99289.48;;;-2.82;100.00
19789;BME280;10054;59.332;18.244;2023-03-13T06:51:44;99289.70;;;-2.75;100.00
19789;BME280;10054;59.332;18.244;2023-03-13T06:54:13;99290.72;;;-2.66;100.00
19789;BME280;10054;59.332;18.244;2023-03-13T06:56:42;99277.67;;;-2.61;100.00
19789;BME280;10054;59.332;18.244;2023-03-13T06:59:11;99277.39;;;-2.52;100.00
19789;BME280;10054;59.332;18.244;2023-03-13T07:01:40;99270.25;;;-2.44;100.00
19789;BME280;10054;59.332;18.244;2023-03-13T07:04:11;99253.17;;;-2.35;100.00
19789;BME280;10054;59.332;18.244;2023-03-13T07:06:39;99245.58;;;-2.26;100.00
19789;BME280;10054;59.332;18.244;2023-03-13T07:09:08;99222.00;;;-2.17;100.00
19789;BME280;10054;59.332;18.244;2023-03-13T07:11:37;99219.55;;;-2.08;100.00
19789;BME280;10054;59.332;18.244;2023-03-13T07:14:06;99210.99;;;-1.97;100.00
19789;BME280;10054;59.332;18.244;2023-03-13T07:16:35;99213.27;;;-1.88;100.00
19789;BME280;10054;59.332;18.244;2023-03-13T07:19:04;99208.62;;;-1.78;100.00
19789;BME280;10054;59.332;18.244;2023-03-13T07:21:33;99216.00;;;-1.68;100.00
19789;BME280;10054;59.332;18.244;2023-03-13T07:24:02;99197.58;;;-1.58;100.00
19789;BME280;10054;59.332;18.244;2023-03-13T07:26:31;99201.88;;;-1.47;99.88
19789;BME280;10054;59.332;18.244;2023-03-13T07:29:00;99193.73;;;-1.37;100.00
19789;BME280;10054;59.332;18.244;2023-03-13T07:31:29;99191.31;;;-1.29;98.75
19789;BME280;10054;59.332;18.244;2023-03-13T07:33:59;99175.44;;;-1.20;97.90
19789;BME280;10054;59.332;18.244;2023-03-13T07:36:28;99174.25;;;-1.12;97.89
19789;BME280;10054;59.332;18.244;2023-03-13T07:38:57;99164.90;;;-1.04;97.57
19789;BME280;10054;59.332;18.244;2023-03-13T07:41:26;99147.33;;;-0.96;97.14
19789;BME280;10054;59.332;18.244;2023-03-13T07:43:56;99150.06;;;-0.89;96.57
19789;BME280;10054;59.332;18.244;2023-03-13T07:46:25;99150.67;;;-0.82;95.60
19789;BME280;10054;59.332;18.244;2023-03-13T07:48:54;99148.13;;;-0.74;95.10
19789;BME280;10054;59.332;18.244;2023-03-13T07:51:24;99150.80;;;-0.65;94.57
19789;BME280;10054;59.332;18.244;2023-03-13T07:53:54;99139.36;;;-0.59;94.22
19789;BME280;10054;59.332;18.244;2023-03-13T07:56:23;99129.47;;;-0.40;95.75
19789;BME280;10054;59.332;18.244;2023-03-13T07:58:52;99122.02;;;-0.27;93.71
19789;BME280;10054;59.332;18.244;2023-03-13T08:01:28;99110.56;;;-0.21;91.96
19789;BME280;10054;59.332;18.244;2023-03-13T08:03:53;99103.17;;;-0.20;90.52
19789;BME280;10054;59.332;18.244;2023-03-13T08:06:24;99098.31;;;-0.18;90.62
19789;BME280;10054;59.332;18.244;2023-03-13T08:08:58;99090.86;;;-0.15;91.29
19789;BME280;10054;59.332;18.244;2023-03-13T08:11:27;99073.11;;;-0.14;91.71
19789;BME280;10054;59.332;18.244;2023-03-13T08:13:57;99068.70;;;-0.12;92.06
19789;BME280;10054;59.332;18.244;2023-03-13T08:16:28;99072.52;;;-0.11;92.87
19789;BME280;10054;59.332;18.244;2023-03-13T08:18:58;99051.64;;;-0.08;93.25
19789;BME280;10054;59.332;18.244;2023-03-13T08:21:29;99052.67;;;-0.02;94.19
19789;BME280;10054;59.332;18.244;2023-03-13T08:24:00;99048.78;;;-0.02;94.92
19789;BME280;10054;59.332;18.244;2023-03-13T08:26:30;99053.05;;;-0.01;95.60
19789;BME280;10054;59.332;18.244;2023-03-13T08:29:02;99045.73;;;-0.01;96.74
19789;BME280;10054;59.332;18.244;2023-03-13T08:31:33;99041.01;;;-0.02;97.78
19789;BME280;10054;59.332;18.244;2023-03-13T08:34:02;99040.16;;;-0.02;99.18
19789;BME280;10054;59.332;18.244;2023-03-13T08:36:33;99031.48;;;-0.01;100.00
19789;BME280;10054;59.332;18.244;2023-03-13T08:39:08;99021.84;;;0.01;100.00
19789;BME280;10054;59.332;18.244;2023-03-13T08:41:36;99012.32;;;0.02;100.00
19789;BME280;10054;59.332;18.244;2023-03-13T08:44:09;99017.22;;;-0.01;100.00
19789;BME280;10054;59.332;18.244;2023-03-13T08:46:37;99012.11;;;-0.03;100.00
19789;BME280;10054;59.332;18.244;2023-03-13T08:49:07;99000.89;;;-0.03;100.00
19789;BME280;10054;59.332;18.244;2023-03-13T08:51:36;98995.92;;;-0.08;100.00
19789;BME280;10054;59.332;18.244;2023-03-13T08:54:05;98990.42;;;-0.10;100.00
19789;BME280;10054;59.332;18.244;2023-03-13T08:56:35;98991.78;;;-0.12;100.00
19789;BME280;10054;59.332;18.244;2023-03-13T08:59:05;98979.21;;;-0.11;100.00
19789;BME280;10054;59.332;18.244;2023-03-13T09:01:35;98968.70;;;-0.08;100.00
19789;BME280;10054;59.332;18.244;2023-03-13T09:04:05;98979.39;;;-0.05;100.00
19789;BME280;10054;59.332;18.244;2023-03-13T09:06:35;98957.36;;;-0.05;100.00
19789;BME280;10054;59.332;18.244;2023-03-13T09:09:06;98952.88;;;-0.02;100.00
19789;BME280;10054;59.332;18.244;2023-03-13T09:11:36;98949.65;;;0.02;100.00
19789;BME280;10054;59.332;18.244;2023-03-13T09:14:06;98936.09;;;0.06;100.00
19789;BME280;10054;59.332;18.244;2023-03-13T09:16:35;98930.77;;;0.09;100.00
19789;BME280;10054;59.332;18.244;2023-03-13T09:19:05;98922.84;;;0.12;100.00
19789;BME280;10054;59.332;18.244;2023-03-13T09:21:35;98901.64;;;0.12;100.00
19789;BME280;10054;59.332;18.244;2023-03-13T09:24:04;98896.31;;;0.15;100.00
19789;BME280;10054;59.332;18.244;2023-03-13T09:26:33;98889.76;;;0.17;100.00
19789;BME280;10054;59.332;18.244;2023-03-13T09:29:01;98881.06;;;0.18;100.00
19789;BME280;10054;59.332;18.244;2023-03-13T09:31:31;98880.16;;;0.19;100.00
19789;BME280;10054;59.332;18.244;2023-03-13T09:34:01;98871.39;;;0.21;100.00
19789;BME280;10054;59.332;18.244;2023-03-13T09:36:29;98861.86;;;0.22;100.00
19789;BME280;10054;59.332;18.244;2023-03-13T09:38:59;98837.60;;;0.23;100.00
19789;BME280;10054;59.332;18.244;2023-03-13T09:42:00;98840.73;;;0.29;100.00
19789;BME280;10054;59.332;18.244;2023-03-13T09:44:31;98833.64;;;0.33;100.00
19789;BME280;10054;59.332;18.244;2023-03-13T09:49:41;98825.10;;;0.40;100.00
19789;BME280;10054;59.332;18.244;2023-03-13T09:52:26;98814.50;;;0.44;100.00
19789;BME280;10054;59.332;18.244;2023-03-13T09:57:58;98789.39;;;0.53;100.00
19789;BME280;10054;59.332;18.244;2023-03-13T10:00:30;98775.72;;;0.58;100.00
19789;BME280;10054;59.332;18.244;2023-03-13T10:03:04;98776.25;;;0.65;100.00
19789;BME280;10054;59.332;18.244;2023-03-13T10:05:33;98760.67;;;0.65;100.00
19789;BME280;10054;59.332;18.244;2023-03-13T10:08:17;98748.78;;;0.61;100.00
19789;BME280;10054;59.332;18.244;2023-03-13T10:11:10;98742.67;;;0.62;100.00
19789;BME280;10054;59.332;18.244;2023-03-13T10:13:41;98734.05;;;0.61;100.00
19789;BME280;10054;59.332;18.244;2023-03-13T10:16:21;98735.27;;;0.63;100.00
19789;BME280;10054;59.332;18.244;2023-03-13T10:18:57;98732.52;;;0.66;100.00
19789;BME280;10054;59.332;18.244;2023-03-13T10:21:24;98728.63;;;0.66;100.00
19789;BME280;10054;59.332;18.244;2023-03-13T10:26:39;98700.91;;;0.82;100.00
19789;BME280;10054;59.332;18.244;2023-03-13T10:29:20;98706.39;;;0.85;100.00
19789;BME280;10054;59.332;18.244;2023-03-13T10:32:00;98697.85;;;0.83;100.00
19789;BME280;10054;59.332;18.244;2023-03-13T10:34:45;98686.12;;;0.76;100.00
19789;BME280;10054;59.332;18.244;2023-03-13T10:37:18;98673.13;;;0.69;100.00
19789;BME280;10054;59.332;18.244;2023-03-13T10:39:45;98673.16;;;0.60;100.00
19789;BME280;10054;59.332;18.244;2023-03-13T10:42:29;98661.19;;;0.57;100.00
19789;BME280;10054;59.332;18.244;2023-03-13T10:45:00;98652.05;;;0.50;100.00
19789;BME280;10054;59.332;18.244;2023-03-13T10:47:34;98645.19;;;0.49;100.00
19789;BME280;10054;59.332;18.244;2023-03-13T10:50:04;98629.17;;;0.50;100.00
19789;BME280;10054;59.332;18.244;2023-03-13T10:52:44;98613.98;;;0.51;100.00
19789;BME280;10054;59.332;18.244;2023-03-13T10:55:19;98623.81;;;0.53;100.00
19789;BME280;10054;59.332;18.244;2023-03-13T10:58:03;98618.92;;;0.55;100.00
19789;BME280;10054;59.332;18.244;2023-03-13T11:00:37;98602.06;;;0.55;100.00
19789;BME280;10054;59.332;18.244;2023-03-13T11:03:18;98594.19;;;0.57;100.00
19789;BME280;10054;59.332;18.244;2023-03-13T11:05:54;98581.14;;;0.58;100.00
19789;BME280;10054;59.332;18.244;2023-03-13T11:08:36;98572.52;;;0.58;100.00
19789;BME280;10054;59.332;18.244;2023-03-13T11:11:15;98551.02;;;0.56;100.00
19789;BME280;10054;59.332;18.244;2023-03-13T11:13:39;98547.41;;;0.58;100.00
19789;BME280;10054;59.332;18.244;2023-03-13T11:27:40;98500.45;;;0.63;100.00
19789;BME280;10054;59.332;18.244;2023-03-13T11:30:31;98490.16;;;0.61;100.00
19789;BME280;10054;59.332;18.244;2023-03-13T11:33:13;98482.38;;;0.61;100.00
19789;BME280;10054;59.332;18.244;2023-03-13T11:35:46;98485.27;;;0.64;100.00
19789;BME280;10054;59.332;18.244;2023-03-13T11:38:27;98482.16;;;0.73;100.00
19789;BME280;10054;59.332;18.244;2023-03-13T11:54:34;98412.55;;;0.73;100.00
19789;BME280;10054;59.332;18.244;2023-03-13T11:57:06;98420.97;;;0.69;100.00
19789;BME280;10054;59.332;18.244;2023-03-13T12:00:39;98401.69;;;0.66;100.00
19789;BME280;10054;59.332;18.244;2023-03-13T12:04:54;98374.09;;;0.72;100.00
19789;BME280;10054;59.332;18.244;2023-03-13T12:07:49;98367.59;;;0.72;100.00
19789;BME280;10054;59.332;18.244;2023-03-13T12:10:04;98350.43;;;0.77;100.00
19789;BME280;10054;59.332;18.244;2023-03-13T12:12:51;98352.19;;;0.76;100.00
19789;BME280;10054;59.332;18.244;2023-03-13T12:15:33;98349.69;;;0.75;100.00
19789;BME280;10054;59.332;18.244;2023-03-13T12:18:08;98337.84;;;0.71;100.00
19789;BME280;10054;59.332;18.244;2023-03-13T12:23:18;98309.28;;;0.78;100.00
19789;BME280;10054;59.332;18.244;2023-03-13T12:34:21;98268.88;;;0.81;100.00
19789;BME280;10054;59.332;18.244;2023-03-13T12:36:56;98250.43;;;0.78;100.00
19789;BME280;10054;59.332;18.244;2023-03-13T12:39:35;98251.64;;;0.80;100.00
19789;BME280;10054;59.332;18.244;2023-03-13T12:42:12;98262.76;;;0.82;100.00
19789;BME280;10054;59.332;18.244;2023-03-13T12:44:39;98236.53;;;0.79;100.00
19789;BME280;10054;59.332;18.244;2023-03-13T12:47:31;98229.48;;;0.81;100.00
19789;BME280;10054;59.332;18.244;2023-03-13T13:00:49;98166.45;;;0.86;100.00
19789;BME280;10054;59.332;18.244;2023-03-13T13:03:42;98154.02;;;0.91;100.00
19789;BME280;10054;59.332;18.244;2023-03-13T13:06:11;98141.59;;;0.96;100.00
19789;BME280;10054;59.332;18.244;2023-03-13T13:08:41;98127.56;;;1.06;100.00
19789;BME280;10054;59.332;18.244;2023-03-13T13:16:51;98088.55;;;1.01;100.00
19789;BME280;10054;59.332;18.244;2023-03-13T13:27:45;98037.98;;;0.86;100.00
19789;BME280;10054;59.332;18.244;2023-03-13T13:32:54;98018.16;;;0.85;100.00
19789;BME280;10054;59.332;18.244;2023-03-13T13:35:30;98003.41;;;0.86;100.00
19789;BME280;10054;59.332;18.244;2023-03-13T13:38:20;97993.97;;;0.85;100.00
19789;BME280;10054;59.332;18.244;2023-03-13T13:43:45;97973.56;;;0.86;100.00
19789;BME280;10054;59.332;18.244;2023-03-13T13:46:31;97972.91;;;0.89;100.00
19789;BME280;10054;59.332;18.244;2023-03-13T13:49:21;97950.21;;;0.86;100.00
19789;BME280;10054;59.332;18.244;2023-03-13T13:57:20;97924.42;;;0.90;100.00
19789;BME280;10054;59.332;18.244;2023-03-13T13:59:58;97905.95;;;0.94;100.00
19789;BME280;10054;59.332;18.244;2023-03-13T14:02:24;97900.71;;;1.02;100.00
19789;BME280;10054;59.332;18.244;2023-03-13T14:05:02;97883.69;;;1.10;100.00
19789;BME280;10054;59.332;18.244;2023-03-13T14:08:05;97886.85;;;1.08;100.00
19789;BME280;10054;59.332;18.244;2023-03-13T14:10:19;97868.52;;;1.04;100.00
19789;BME280;10054;59.332;18.244;2023-03-13T14:12:52;97859.02;;;0.97;100.00
19789;BME280;10054;59.332;18.244;2023-03-13T14:15:26;97844.59;;;0.93;100.00
19789;BME280;10054;59.332;18.244;2023-03-13T14:17:57;97834.94;;;0.83;100.00
19789;BME280;10054;59.332;18.244;2023-03-13T14:20:35;97822.42;;;0.82;100.00
19789;BME280;10054;59.332;18.244;2023-03-13T14:23:09;97830.42;;;0.79;100.00
19789;BME280;10054;59.332;18.244;2023-03-13T14:25:47;97804.94;;;0.79;100.00
19789;BME280;10054;59.332;18.244;2023-03-13T14:28:24;97792.43;;;0.78;100.00
19789;BME280;10054;59.332;18.244;2023-03-13T14:30:55;97775.56;;;0.78;100.00
19789;BME280;10054;59.332;18.244;2023-03-13T14:33:26;97772.97;;;0.78;100.00
19789;BME280;10054;59.332;18.244;2023-03-13T14:35:55;97753.98;;;0.78;100.00
19789;BME280;10054;59.332;18.244;2023-03-13T14:38:26;97746.19;;;0.78;100.00
19789;BME280;10054;59.332;18.244;2023-03-13T14:40:56;97737.58;;;0.77;100.00